sensor_id;sensor_type;location;lat;lon;timestamp;P1;durP1;ratioP1;P2;durP2;ratioP2
43877;SDS011;29815;48.184;11.268;2023-05-07T00:00:18;8.23;;;6.00;;
43877;SDS011;29815;48.184;11.268;2023-05-07T00:02:48;9.30;;;6.70;;
43877;SDS011;29815;48.184;11.268;2023-05-07T00:05:17;8.63;;;5.57;;
43877;SDS011;29815;48.184;11.268;2023-05-07T00:07:48;12.43;;;6.70;;
43877;SDS011;29815;48.184;11.268;2023-05-07T00:10:19;8.63;;;6.47;;
43877;SDS011;29815;48.184;11.268;2023-05-07T00:12:48;9.55;;;6.30;;
43877;SDS011;29815;48.184;11.268;2023-05-07T00:15:19;6.65;;;5.95;;
43877;SDS011;29815;48.184;11.268;2023-05-07T00:17:48;6.15;;;5.60;;
43877;SDS011;29815;48.184;11.268;2023-05-07T00:20:18;10.38;;;6.18;;
43877;SDS011;29815;48.184;11.268;2023-05-07T00:22:47;6.25;;;5.18;;
43877;SDS011;29815;48.184;11.268;2023-05-07T00:25:18;7.15;;;6.45;;
43877;SDS011;29815;48.184;11.268;2023-05-07T00:27:48;8.55;;;6.32;;
43877;SDS011;29815;48.184;11.268;2023-05-07T00:30:17;8.75;;;5.43;;
43877;SDS011;29815;48.184;11.268;2023-05-07T00:32:47;7.50;;;5.88;;
43877;SDS011;29815;48.184;11.268;2023-05-07T00:35:18;8.32;;;4.88;;
43877;SDS011;29815;48.184;11.268;2023-05-07T00:37:47;7.03;;;5.35;;
43877;SDS011;29815;48.184;11.268;2023-05-07T00:40:18;6.50;;;5.05;;
43877;SDS011;29815;48.184;11.268;2023-05-07T00:42:48;9.77;;;6.72;;
43877;SDS011;29815;48.184;11.268;2023-05-07T00:45:17;6.30;;;5.43;;
43877;SDS011;29815;48.184;11.268;2023-05-07T00:47:47;7.55;;;5.18;;
43877;SDS011;29815;48.184;11.268;2023-05-07T00:50:16;8.35;;;6.90;;
43877;SDS011;29815;48.184;11.268;2023-05-07T00:52:47;6.65;;;6.00;;
43877;SDS011;29815;48.184;11.268;2023-05-07T00:55:18;8.63;;;5.57;;
43877;SDS011;29815;48.184;11.268;2023-05-07T00:57:49;7.70;;;6.40;;
43877;SDS011;29815;48.184;11.268;2023-05-07T01:00:20;7.47;;;5.60;;
43877;SDS011;29815;48.184;11.268;2023-05-07T01:02:52;11.98;;;6.07;;
43877;SDS011;29815;48.184;11.268;2023-05-07T01:05:23;7.65;;;5.45;;
43877;SDS011;29815;48.184;11.268;2023-05-07T01:07:55;6.15;;;5.57;;
43877;SDS011;29815;48.184;11.268;2023-05-07T01:10:27;9.38;;;7.35;;
43877;SDS011;29815;48.184;11.268;2023-05-07T01:12:58;9.55;;;7.22;;
43877;SDS011;29815;48.184;11.268;2023-05-07T01:15:29;10.82;;;8.20;;
43877;SDS011;29815;48.184;11.268;2023-05-07T01:17:59;11.25;;;7.38;;
43877;SDS011;29815;48.184;11.268;2023-05-07T01:20:33;8.65;;;7.05;;
43877;SDS011;29815;48.184;11.268;2023-05-07T01:23:05;12.10;;;7.82;;
43877;SDS011;29815;48.184;11.268;2023-05-07T01:25:36;9.10;;;8.20;;
43877;SDS011;29815;48.184;11.268;2023-05-07T01:28:07;7.60;;;6.80;;
43877;SDS011;29815;48.184;11.268;2023-05-07T01:30:38;6.82;;;6.22;;
43877;SDS011;29815;48.184;11.268;2023-05-07T01:33:13;8.18;;;6.85;;
43877;SDS011;29815;48.184;11.268;2023-05-07T01:35:48;14.68;;;7.43;;
43877;SDS011;29815;48.184;11.268;2023-05-07T01:38:23;8.30;;;7.32;;
43877;SDS011;29815;48.184;11.268;2023-05-07T01:40:53;8.52;;;6.75;;
43877;SDS011;29815;48.184;11.268;2023-05-07T01:43:23;8.73;;;6.40;;
43877;SDS011;29815;48.184;11.268;2023-05-07T01:45:52;9.05;;;6.15;;
43877;SDS011;29815;48.184;11.268;2023-05-07T01:48:23;8.27;;;6.88;;
43877;SDS011;29815;48.184;11.268;2023-05-07T01:50:54;8.57;;;7.13;;
43877;SDS011;29815;48.184;11.268;2023-05-07T01:53:27;10.65;;;7.70;;
43877;SDS011;29815;48.184;11.268;2023-05-07T01:55:56;7.05;;;6.35;;
43877;SDS011;29815;48.184;11.268;2023-05-07T01:58:26;7.45;;;6.40;;
43877;SDS011;29815;48.184;11.268;2023-05-07T02:00:55;9.77;;;6.40;;
43877;SDS011;29815;48.184;11.268;2023-05-07T02:03:25;7.95;;;6.65;;
43877;SDS011;29815;48.184;11.268;2023-05-07T02:06:04;8.18;;;6.43;;
43877;SDS011;29815;48.184;11.268;2023-05-07T02:08:39;8.02;;;6.88;;
43877;SDS011;29815;48.184;11.268;2023-05-07T02:11:10;8.02;;;7.22;;
43877;SDS011;29815;48.184;11.268;2023-05-07T02:13:39;7.18;;;6.30;;
43877;SDS011;29815;48.184;11.268;2023-05-07T02:16:10;10.02;;;6.50;;
43877;SDS011;29815;48.184;11.268;2023-05-07T02:18:41;9.68;;;7.20;;
43877;SDS011;29815;48.184;11.268;2023-05-07T02:21:11;12.45;;;8.93;;
43877;SDS011;29815;48.184;11.268;2023-05-07T02:23:42;7.93;;;7.13;;
43877;SDS011;29815;48.184;11.268;2023-05-07T02:26:11;8.77;;;7.35;;
43877;SDS011;29815;48.184;11.268;2023-05-07T02:28:41;8.68;;;6.93;;
43877;SDS011;29815;48.184;11.268;2023-05-07T02:31:10;9.60;;;7.68;;
43877;SDS011;29815;48.184;11.268;2023-05-07T02:33:40;8.20;;;7.38;;
43877;SDS011;29815;48.184;11.268;2023-05-07T02:36:10;9.25;;;7.82;;
43877;SDS011;29815;48.184;11.268;2023-05-07T02:38:49;8.55;;;7.50;;
43877;SDS011;29815;48.184;11.268;2023-05-07T02:41:18;11.40;;;7.53;;
43877;SDS011;29815;48.184;11.268;2023-05-07T02:43:48;12.57;;;7.32;;
43877;SDS011;29815;48.184;11.268;2023-05-07T02:46:18;8.80;;;7.53;;
43877;SDS011;29815;48.184;11.268;2023-05-07T02:48:54;10.65;;;8.20;;
43877;SDS011;29815;48.184;11.268;2023-05-07T02:51:25;9.10;;;8.20;;
43877;SDS011;29815;48.184;11.268;2023-05-07T02:53:59;12.48;;;8.90;;
43877;SDS011;29815;48.184;11.268;2023-05-07T02:56:30;8.60;;;6.95;;
43877;SDS011;29815;48.184;11.268;2023-05-07T02:59:00;8.35;;;6.88;;
43877;SDS011;29815;48.184;11.268;2023-05-07T03:01:33;9.85;;;8.27;;
43877;SDS011;29815;48.184;11.268;2023-05-07T03:04:05;8.37;;;7.57;;
43877;SDS011;29815;48.184;11.268;2023-05-07T03:06:35;12.05;;;7.53;;
43877;SDS011;29815;48.184;11.268;2023-05-07T03:09:06;10.13;;;7.70;;
43877;SDS011;29815;48.184;11.268;2023-05-07T03:11:36;7.15;;;6.18;;
43877;SDS011;29815;48.184;11.268;2023-05-07T03:14:05;9.27;;;6.90;;
43877;SDS011;29815;48.184;11.268;2023-05-07T03:16:35;7.00;;;6.30;;
43877;SDS011;29815;48.184;11.268;2023-05-07T03:19:04;8.95;;;7.13;;
43877;SDS011;29815;48.184;11.268;2023-05-07T03:21:34;7.80;;;6.22;;
43877;SDS011;29815;48.184;11.268;2023-05-07T03:24:04;8.27;;;6.97;;
43877;SDS011;29815;48.184;11.268;2023-05-07T03:26:35;10.07;;;7.15;;
43877;SDS011;29815;48.184;11.268;2023-05-07T03:29:05;7.00;;;6.30;;
43877;SDS011;29815;48.184;11.268;2023-05-07T03:31:34;8.23;;;7.03;;
43877;SDS011;29815;48.184;11.268;2023-05-07T03:34:04;7.65;;;6.40;;
43877;SDS011;29815;48.184;11.268;2023-05-07T03:36:33;8.55;;;6.38;;
43877;SDS011;29815;48.184;11.268;2023-05-07T03:39:04;7.72;;;6.88;;
43877;SDS011;29815;48.184;11.268;2023-05-07T03:41:39;7.28;;;6.57;;
43877;SDS011;29815;48.184;11.268;2023-05-07T03:44:09;7.72;;;6.90;;
43877;SDS011;29815;48.184;11.268;2023-05-07T03:46:39;6.78;;;5.97;;
43877;SDS011;29815;48.184;11.268;2023-05-07T03:49:10;7.40;;;6.53;;
43877;SDS011;29815;48.184;11.268;2023-05-07T03:51:40;9.80;;;6.97;;
43877;SDS011;29815;48.184;11.268;2023-05-07T03:54:11;7.28;;;6.50;;
43877;SDS011;29815;48.184;11.268;2023-05-07T03:56:44;10.05;;;7.00;;
43877;SDS011;29815;48.184;11.268;2023-05-07T03:59:14;8.82;;;7.22;;
43877;SDS011;29815;48.184;11.268;2023-05-07T04:01:46;8.80;;;6.55;;
43877;SDS011;29815;48.184;11.268;2023-05-07T04:04:19;7.40;;;6.55;;
43877;SDS011;29815;48.184;11.268;2023-05-07T04:06:48;7.50;;;6.80;;
43877;SDS011;29815;48.184;11.268;2023-05-07T04:09:20;7.57;;;6.82;;
43877;SDS011;29815;48.184;11.268;2023-05-07T04:11:50;7.95;;;6.43;;
43877;SDS011;29815;48.184;11.268;2023-05-07T04:14:19;7.82;;;7.00;;
43877;SDS011;29815;48.184;11.268;2023-05-07T04:16:49;6.85;;;6.18;;
43877;SDS011;29815;48.184;11.268;2023-05-07T04:19:19;11.45;;;6.75;;
43877;SDS011;29815;48.184;11.268;2023-05-07T04:21:52;8.52;;;6.70;;
43877;SDS011;29815;48.184;11.268;2023-05-07T04:24:23;7.68;;;6.88;;
43877;SDS011;29815;48.184;11.268;2023-05-07T04:26:53;8.35;;;7.30;;
43877;SDS011;29815;48.184;11.268;2023-05-07T04:29:23;11.10;;;8.65;;
43877;SDS011;29815;48.184;11.268;2023-05-07T04:31:53;7.93;;;6.82;;
43877;SDS011;29815;48.184;11.268;2023-05-07T04:34:24;6.68;;;5.88;;
43877;SDS011;29815;48.184;11.268;2023-05-07T04:36:53;8.82;;;6.00;;
43877;SDS011;29815;48.184;11.268;2023-05-07T04:39:29;9.00;;;6.40;;
43877;SDS011;29815;48.184;11.268;2023-05-07T04:41:59;7.38;;;5.68;;
43877;SDS011;29815;48.184;11.268;2023-05-07T04:44:29;6.85;;;6.25;;
43877;SDS011;29815;48.184;11.268;2023-05-07T04:46:59;7.50;;;6.40;;
43877;SDS011;29815;48.184;11.268;2023-05-07T04:49:29;7.97;;;7.18;;
43877;SDS011;29815;48.184;11.268;2023-05-07T04:51:59;8.25;;;7.10;;
43877;SDS011;29815;48.184;11.268;2023-05-07T04:54:30;8.63;;;7.22;;
43877;SDS011;29815;48.184;11.268;2023-05-07T04:57:00;7.82;;;7.03;;
43877;SDS011;29815;48.184;11.268;2023-05-07T04:59:32;7.35;;;6.38;;
43877;SDS011;29815;48.184;11.268;2023-05-07T05:02:01;8.07;;;7.30;;
43877;SDS011;29815;48.184;11.268;2023-05-07T05:04:32;8.25;;;7.45;;
43877;SDS011;29815;48.184;11.268;2023-05-07T05:07:02;10.45;;;7.85;;
43877;SDS011;29815;48.184;11.268;2023-05-07T05:09:33;7.97;;;6.97;;
43877;SDS011;29815;48.184;11.268;2023-05-07T05:12:03;9.80;;;8.80;;
43877;SDS011;29815;48.184;11.268;2023-05-07T05:14:36;9.07;;;8.18;;
43877;SDS011;29815;48.184;11.268;2023-05-07T05:17:07;11.68;;;10.35;;
43877;SDS011;29815;48.184;11.268;2023-05-07T05:19:37;10.00;;;8.60;;
43877;SDS011;29815;48.184;11.268;2023-05-07T05:22:07;14.75;;;11.20;;
43877;SDS011;29815;48.184;11.268;2023-05-07T05:24:38;11.18;;;8.52;;
43877;SDS011;29815;48.184;11.268;2023-05-07T05:27:07;13.38;;;12.05;;
43877;SDS011;29815;48.184;11.268;2023-05-07T05:29:37;17.15;;;13.20;;
43877;SDS011;29815;48.184;11.268;2023-05-07T05:32:06;15.98;;;12.60;;
43877;SDS011;29815;48.184;11.268;2023-05-07T05:34:36;15.50;;;11.63;;
43877;SDS011;29815;48.184;11.268;2023-05-07T05:37:06;13.77;;;12.15;;
43877;SDS011;29815;48.184;11.268;2023-05-07T05:39:37;17.60;;;13.70;;
43877;SDS011;29815;48.184;11.268;2023-05-07T05:42:08;18.20;;;14.15;;
43877;SDS011;29815;48.184;11.268;2023-05-07T05:44:39;16.33;;;13.23;;
43877;SDS011;29815;48.184;11.268;2023-05-07T05:47:08;14.60;;;12.82;;
43877;SDS011;29815;48.184;11.268;2023-05-07T05:49:38;14.20;;;12.68;;
43877;SDS011;29815;48.184;11.268;2023-05-07T05:52:12;16.27;;;13.90;;
43877;SDS011;29815;48.184;11.268;2023-05-07T05:54:43;14.18;;;12.77;;
43877;SDS011;29815;48.184;11.268;2023-05-07T05:57:13;16.73;;;13.30;;
43877;SDS011;29815;48.184;11.268;2023-05-07T05:59:44;17.05;;;13.40;;
43877;SDS011;29815;48.184;11.268;2023-05-07T06:02:14;13.30;;;11.88;;
43877;SDS011;29815;48.184;11.268;2023-05-07T06:04:44;15.20;;;11.40;;
43877;SDS011;29815;48.184;11.268;2023-05-07T06:07:18;11.30;;;9.25;;
43877;SDS011;29815;48.184;11.268;2023-05-07T06:09:50;9.18;;;8.20;;
43877;SDS011;29815;48.184;11.268;2023-05-07T06:12:20;9.93;;;8.73;;
43877;SDS011;29815;48.184;11.268;2023-05-07T06:14:50;10.95;;;8.60;;
43877;SDS011;29815;48.184;11.268;2023-05-07T06:17:19;13.15;;;9.50;;
43877;SDS011;29815;48.184;11.268;2023-05-07T06:19:50;15.27;;;12.43;;
43877;SDS011;29815;48.184;11.268;2023-05-07T06:22:21;13.27;;;11.00;;
43877;SDS011;29815;48.184;11.268;2023-05-07T06:24:51;8.95;;;8.13;;
43877;SDS011;29815;48.184;11.268;2023-05-07T06:27:22;7.85;;;7.03;;
43877;SDS011;29815;48.184;11.268;2023-05-07T06:29:52;7.35;;;6.57;;
43877;SDS011;29815;48.184;11.268;2023-05-07T06:32:22;7.88;;;6.13;;
43877;SDS011;29815;48.184;11.268;2023-05-07T06:34:52;7.72;;;6.70;;
43877;SDS011;29815;48.184;11.268;2023-05-07T06:37:21;7.20;;;6.50;;
43877;SDS011;29815;48.184;11.268;2023-05-07T06:40:03;6.47;;;5.88;;
43877;SDS011;29815;48.184;11.268;2023-05-07T06:42:38;7.53;;;5.80;;
43877;SDS011;29815;48.184;11.268;2023-05-07T06:45:23;6.45;;;5.85;;
43877;SDS011;29815;48.184;11.268;2023-05-07T06:47:55;7.15;;;6.32;;
43877;SDS011;29815;48.184;11.268;2023-05-07T06:50:25;6.15;;;5.50;;
43877;SDS011;29815;48.184;11.268;2023-05-07T06:52:57;6.25;;;5.65;;
43877;SDS011;29815;48.184;11.268;2023-05-07T06:55:28;9.02;;;5.65;;
43877;SDS011;29815;48.184;11.268;2023-05-07T06:57:58;8.82;;;6.28;;
43877;SDS011;29815;48.184;11.268;2023-05-07T07:00:28;6.32;;;5.70;;
43877;SDS011;29815;48.184;11.268;2023-05-07T07:02:58;6.95;;;5.65;;
43877;SDS011;29815;48.184;11.268;2023-05-07T07:05:28;6.18;;;5.20;;
43877;SDS011;29815;48.184;11.268;2023-05-07T07:07:59;7.07;;;5.28;;
43877;SDS011;29815;48.184;11.268;2023-05-07T07:10:30;5.78;;;5.18;;
43877;SDS011;29815;48.184;11.268;2023-05-07T07:13:00;6.70;;;5.25;;
43877;SDS011;29815;48.184;11.268;2023-05-07T07:15:30;5.43;;;4.93;;
43877;SDS011;29815;48.184;11.268;2023-05-07T07:17:59;6.63;;;5.38;;
43877;SDS011;29815;48.184;11.268;2023-05-07T07:20:29;5.10;;;4.35;;
43877;SDS011;29815;48.184;11.268;2023-05-07T07:22:59;5.47;;;4.93;;
43877;SDS011;29815;48.184;11.268;2023-05-07T07:25:30;5.55;;;4.53;;
43877;SDS011;29815;48.184;11.268;2023-05-07T07:27:59;5.75;;;5.25;;
43877;SDS011;29815;48.184;11.268;2023-05-07T07:30:29;5.78;;;4.40;;
43877;SDS011;29815;48.184;11.268;2023-05-07T07:32:58;6.30;;;5.25;;
43877;SDS011;29815;48.184;11.268;2023-05-07T07:35:34;5.63;;;5.13;;
43877;SDS011;29815;48.184;11.268;2023-05-07T07:38:05;6.53;;;5.03;;
43877;SDS011;29815;48.184;11.268;2023-05-07T07:40:36;5.80;;;4.72;;
43877;SDS011;29815;48.184;11.268;2023-05-07T07:43:07;5.13;;;4.60;;
43877;SDS011;29815;48.184;11.268;2023-05-07T07:45:37;5.10;;;4.60;;
43877;SDS011;29815;48.184;11.268;2023-05-07T07:48:07;6.53;;;5.28;;
43877;SDS011;29815;48.184;11.268;2023-05-07T07:50:38;6.97;;;5.47;;
43877;SDS011;29815;48.184;11.268;2023-05-07T07:53:15;5.60;;;5.03;;
43877;SDS011;29815;48.184;11.268;2023-05-07T07:55:46;10.77;;;5.43;;
43877;SDS011;29815;48.184;11.268;2023-05-07T07:58:18;7.15;;;5.40;;
43877;SDS011;29815;48.184;11.268;2023-05-07T08:00:49;6.45;;;4.53;;
43877;SDS011;29815;48.184;11.268;2023-05-07T08:03:19;6.43;;;5.03;;
43877;SDS011;29815;48.184;11.268;2023-05-07T08:05:52;5.13;;;4.63;;
43877;SDS011;29815;48.184;11.268;2023-05-07T08:08:22;5.93;;;4.95;;
43877;SDS011;29815;48.184;11.268;2023-05-07T08:10:55;5.70;;;5.10;;
43877;SDS011;29815;48.184;11.268;2023-05-07T08:13:29;9.40;;;7.65;;
43877;SDS011;29815;48.184;11.268;2023-05-07T08:16:00;8.45;;;7.65;;
43877;SDS011;29815;48.184;11.268;2023-05-07T08:18:29;6.93;;;6.22;;
43877;SDS011;29815;48.184;11.268;2023-05-07T08:21:01;9.35;;;8.30;;
43877;SDS011;29815;48.184;11.268;2023-05-07T08:23:32;8.05;;;7.20;;
43877;SDS011;29815;48.184;11.268;2023-05-07T08:26:04;11.00;;;8.75;;
43877;SDS011;29815;48.184;11.268;2023-05-07T08:28:34;12.77;;;9.07;;
43877;SDS011;29815;48.184;11.268;2023-05-07T08:31:04;8.45;;;7.63;;
43877;SDS011;29815;48.184;11.268;2023-05-07T08:36:06;8.57;;;6.53;;
43877;SDS011;29815;48.184;11.268;2023-05-07T08:38:36;7.60;;;6.53;;
43877;SDS011;29815;48.184;11.268;2023-05-07T08:41:06;6.63;;;6.03;;
43877;SDS011;29815;48.184;11.268;2023-05-07T08:43:41;7.13;;;5.63;;
43877;SDS011;29815;48.184;11.268;2023-05-07T08:46:17;8.27;;;5.03;;
43877;SDS011;29815;48.184;11.268;2023-05-07T08:48:54;5.60;;;5.10;;
43877;SDS011;29815;48.184;11.268;2023-05-07T08:51:24;5.38;;;4.78;;
43877;SDS011;29815;48.184;11.268;2023-05-07T08:53:54;5.25;;;4.57;;
43877;SDS011;29815;48.184;11.268;2023-05-07T08:56:31;6.50;;;4.03;;
43877;SDS011;29815;48.184;11.268;2023-05-07T08:59:00;4.50;;;3.70;;
43877;SDS011;29815;48.184;11.268;2023-05-07T09:01:31;4.78;;;4.18;;
43877;SDS011;29815;48.184;11.268;2023-05-07T09:04:03;5.37;;;4.10;;
43877;SDS011;29815;48.184;11.268;2023-05-07T09:06:34;4.35;;;3.50;;
43877;SDS011;29815;48.184;11.268;2023-05-07T09:09:05;4.50;;;3.28;;
43877;SDS011;29815;48.184;11.268;2023-05-07T09:11:36;4.45;;;3.70;;
43877;SDS011;29815;48.184;11.268;2023-05-07T09:14:05;4.90;;;3.53;;
43877;SDS011;29815;48.184;11.268;2023-05-07T09:16:39;4.75;;;3.13;;
43877;SDS011;29815;48.184;11.268;2023-05-07T09:19:09;3.55;;;3.20;;
43877;SDS011;29815;48.184;11.268;2023-05-07T09:21:44;6.10;;;4.25;;
43877;SDS011;29815;48.184;11.268;2023-05-07T09:24:15;4.07;;;2.80;;
43877;SDS011;29815;48.184;11.268;2023-05-07T09:26:46;4.40;;;3.15;;
43877;SDS011;29815;48.184;11.268;2023-05-07T09:29:15;5.18;;;3.92;;
43877;SDS011;29815;48.184;11.268;2023-05-07T09:31:46;3.47;;;2.90;;
43877;SDS011;29815;48.184;11.268;2023-05-07T09:34:17;4.30;;;3.17;;
43877;SDS011;29815;48.184;11.268;2023-05-07T09:36:48;3.58;;;2.50;;
43877;SDS011;29815;48.184;11.268;2023-05-07T09:39:18;5.57;;;3.45;;
43877;SDS011;29815;48.184;11.268;2023-05-07T09:41:49;3.90;;;3.10;;
43877;SDS011;29815;48.184;11.268;2023-05-07T09:44:31;4.88;;;3.35;;
43877;SDS011;29815;48.184;11.268;2023-05-07T09:47:01;3.17;;;2.35;;
43877;SDS011;29815;48.184;11.268;2023-05-07T09:49:40;3.63;;;2.50;;
43877;SDS011;29815;48.184;11.268;2023-05-07T09:52:19;5.35;;;2.92;;
43877;SDS011;29815;48.184;11.268;2023-05-07T09:54:53;3.80;;;2.72;;
43877;SDS011;29815;48.184;11.268;2023-05-07T09:57:30;3.67;;;2.63;;
43877;SDS011;29815;48.184;11.268;2023-05-07T10:00:05;4.05;;;2.67;;
43877;SDS011;29815;48.184;11.268;2023-05-07T10:02:57;4.80;;;2.92;;
43877;SDS011;29815;48.184;11.268;2023-05-07T10:05:39;2.75;;;2.22;;
43877;SDS011;29815;48.184;11.268;2023-05-07T10:08:13;3.67;;;2.50;;
43877;SDS011;29815;48.184;11.268;2023-05-07T10:10:45;3.20;;;2.40;;
43877;SDS011;29815;48.184;11.268;2023-05-07T10:13:20;2.67;;;1.88;;
43877;SDS011;29815;48.184;11.268;2023-05-07T10:15:53;4.43;;;2.70;;
43877;SDS011;29815;48.184;11.268;2023-05-07T10:18:26;4.43;;;2.03;;
43877;SDS011;29815;48.184;11.268;2023-05-07T10:21:07;4.05;;;2.05;;
43877;SDS011;29815;48.184;11.268;2023-05-07T10:23:40;3.33;;;2.03;;
43877;SDS011;29815;48.184;11.268;2023-05-07T10:26:13;4.05;;;2.50;;
43877;SDS011;29815;48.184;11.268;2023-05-07T10:28:46;3.42;;;2.70;;
43877;SDS011;29815;48.184;11.268;2023-05-07T10:31:28;3.78;;;1.90;;
43877;SDS011;29815;48.184;11.268;2023-05-07T10:34:28;4.47;;;2.20;;
43877;SDS011;29815;48.184;11.268;2023-05-07T10:37:04;4.50;;;3.08;;
43877;SDS011;29815;48.184;11.268;2023-05-07T10:39:35;4.50;;;3.17;;
43877;SDS011;29815;48.184;11.268;2023-05-07T10:42:07;4.18;;;3.03;;
43877;SDS011;29815;48.184;11.268;2023-05-07T10:44:41;6.22;;;3.17;;
43877;SDS011;29815;48.184;11.268;2023-05-07T10:47:16;4.43;;;2.95;;
43877;SDS011;29815;48.184;11.268;2023-05-07T10:56:26;3.38;;;2.78;;
43877;SDS011;29815;48.184;11.268;2023-05-07T10:59:35;3.50;;;2.67;;
43877;SDS011;29815;48.184;11.268;2023-05-07T11:02:39;4.43;;;2.90;;
43877;SDS011;29815;48.184;11.268;2023-05-07T11:05:44;5.43;;;2.72;;
43877;SDS011;29815;48.184;11.268;2023-05-07T11:08:23;3.25;;;2.90;;
43877;SDS011;29815;48.184;11.268;2023-05-07T11:11:04;3.22;;;2.22;;
43877;SDS011;29815;48.184;11.268;2023-05-07T11:13:44;3.03;;;2.45;;
43877;SDS011;29815;48.184;11.268;2023-05-07T11:16:25;4.15;;;2.72;;
43877;SDS011;29815;48.184;11.268;2023-05-07T11:19:11;3.38;;;2.15;;
43877;SDS011;29815;48.184;11.268;2023-05-07T11:21:46;3.83;;;2.20;;
43877;SDS011;29815;48.184;11.268;2023-05-07T11:24:39;2.75;;;2.22;;
43877;SDS011;29815;48.184;11.268;2023-05-07T11:27:12;3.80;;;2.42;;
43877;SDS011;29815;48.184;11.268;2023-05-07T11:29:44;4.28;;;2.80;;
43877;SDS011;29815;48.184;11.268;2023-05-07T11:32:17;2.83;;;2.00;;
43877;SDS011;29815;48.184;11.268;2023-05-07T11:34:55;3.30;;;2.30;;
43877;SDS011;29815;48.184;11.268;2023-05-07T11:37:27;2.78;;;1.92;;
43877;SDS011;29815;48.184;11.268;2023-05-07T11:40:03;3.50;;;2.47;;
43877;SDS011;29815;48.184;11.268;2023-05-07T11:42:35;2.95;;;2.00;;
43877;SDS011;29815;48.184;11.268;2023-05-07T11:45:07;8.57;;;2.55;;
43877;SDS011;29815;48.184;11.268;2023-05-07T11:47:41;3.25;;;1.95;;
43877;SDS011;29815;48.184;11.268;2023-05-07T11:50:12;4.97;;;2.30;;
43877;SDS011;29815;48.184;11.268;2023-05-07T11:52:49;3.65;;;2.40;;
43877;SDS011;29815;48.184;11.268;2023-05-07T11:55:20;3.88;;;1.95;;
43877;SDS011;29815;48.184;11.268;2023-05-07T11:57:51;3.53;;;2.28;;
43877;SDS011;29815;48.184;11.268;2023-05-07T12:00:20;3.22;;;2.00;;
43877;SDS011;29815;48.184;11.268;2023-05-07T12:02:50;2.95;;;2.53;;
43877;SDS011;29815;48.184;11.268;2023-05-07T12:05:21;3.97;;;2.90;;
43877;SDS011;29815;48.184;11.268;2023-05-07T12:07:55;2.47;;;2.05;;
43877;SDS011;29815;48.184;11.268;2023-05-07T12:10:25;2.85;;;2.20;;
43877;SDS011;29815;48.184;11.268;2023-05-07T12:12:55;4.47;;;2.08;;
43877;SDS011;29815;48.184;11.268;2023-05-07T12:15:24;3.45;;;1.75;;
43877;SDS011;29815;48.184;11.268;2023-05-07T12:17:54;6.53;;;1.88;;
43877;SDS011;29815;48.184;11.268;2023-05-07T12:20:25;2.92;;;2.03;;
43877;SDS011;29815;48.184;11.268;2023-05-07T12:22:55;5.50;;;2.00;;
43877;SDS011;29815;48.184;11.268;2023-05-07T12:25:25;4.55;;;2.13;;
43877;SDS011;29815;48.184;11.268;2023-05-07T12:27:55;3.08;;;2.08;;
43877;SDS011;29815;48.184;11.268;2023-05-07T12:30:26;3.60;;;2.30;;
43877;SDS011;29815;48.184;11.268;2023-05-07T12:32:55;3.80;;;2.08;;
43877;SDS011;29815;48.184;11.268;2023-05-07T12:35:27;3.60;;;1.83;;
43877;SDS011;29815;48.184;11.268;2023-05-07T12:38:07;2.83;;;2.08;;
43877;SDS011;29815;48.184;11.268;2023-05-07T12:40:39;3.10;;;2.00;;
43877;SDS011;29815;48.184;11.268;2023-05-07T12:43:14;2.92;;;2.00;;
43877;SDS011;29815;48.184;11.268;2023-05-07T12:45:47;4.28;;;2.05;;
43877;SDS011;29815;48.184;11.268;2023-05-07T12:48:19;2.50;;;1.40;;
43877;SDS011;29815;48.184;11.268;2023-05-07T12:50:51;2.63;;;1.92;;
43877;SDS011;29815;48.184;11.268;2023-05-07T12:53:22;2.90;;;1.88;;
43877;SDS011;29815;48.184;11.268;2023-05-07T12:58:27;3.25;;;2.95;;
43877;SDS011;29815;48.184;11.268;2023-05-07T13:00:59;3.83;;;2.47;;
43877;SDS011;29815;48.184;11.268;2023-05-07T13:03:34;2.08;;;1.55;;
43877;SDS011;29815;48.184;11.268;2023-05-07T13:06:08;3.65;;;1.88;;
43877;SDS011;29815;48.184;11.268;2023-05-07T13:08:40;4.05;;;2.10;;
43877;SDS011;29815;48.184;11.268;2023-05-07T13:11:11;3.25;;;1.77;;
43877;SDS011;29815;48.184;11.268;2023-05-07T13:13:41;3.00;;;2.13;;
43877;SDS011;29815;48.184;11.268;2023-05-07T13:16:11;3.33;;;2.05;;
43877;SDS011;29815;48.184;11.268;2023-05-07T13:18:40;2.05;;;1.85;;
43877;SDS011;29815;48.184;11.268;2023-05-07T13:21:12;2.13;;;1.88;;
43877;SDS011;29815;48.184;11.268;2023-05-07T13:23:42;2.65;;;2.45;;
43877;SDS011;29815;48.184;11.268;2023-05-07T13:26:11;2.72;;;2.20;;
43877;SDS011;29815;48.184;11.268;2023-05-07T13:28:53;2.30;;;1.83;;
43877;SDS011;29815;48.184;11.268;2023-05-07T13:31:23;4.15;;;1.90;;
43877;SDS011;29815;48.184;11.268;2023-05-07T13:33:53;2.47;;;2.03;;
43877;SDS011;29815;48.184;11.268;2023-05-07T13:36:25;3.13;;;1.80;;
43877;SDS011;29815;48.184;11.268;2023-05-07T13:38:55;3.83;;;2.00;;
43877;SDS011;29815;48.184;11.268;2023-05-07T13:41:26;2.35;;;2.10;;
43877;SDS011;29815;48.184;11.268;2023-05-07T13:43:56;2.97;;;1.75;;
43877;SDS011;29815;48.184;11.268;2023-05-07T13:46:25;2.40;;;2.20;;
43877;SDS011;29815;48.184;11.268;2023-05-07T13:48:57;2.92;;;1.73;;
43877;SDS011;29815;48.184;11.268;2023-05-07T13:51:28;2.65;;;1.55;;
43877;SDS011;29815;48.184;11.268;2023-05-07T13:53:57;1.85;;;1.52;;
43877;SDS011;29815;48.184;11.268;2023-05-07T13:56:27;2.88;;;1.75;;
43877;SDS011;29815;48.184;11.268;2023-05-07T13:58:58;2.93;;;2.13;;
43877;SDS011;29815;48.184;11.268;2023-05-07T14:01:28;2.70;;;2.30;;
43877;SDS011;29815;48.184;11.268;2023-05-07T14:03:58;3.58;;;2.53;;
43877;SDS011;29815;48.184;11.268;2023-05-07T14:06:29;3.45;;;2.50;;
43877;SDS011;29815;48.184;11.268;2023-05-07T14:08:58;2.88;;;1.90;;
43877;SDS011;29815;48.184;11.268;2023-05-07T14:11:28;4.03;;;2.63;;
43877;SDS011;29815;48.184;11.268;2023-05-07T14:14:00;4.78;;;2.55;;
43877;SDS011;29815;48.184;11.268;2023-05-07T14:16:29;3.83;;;2.15;;
43877;SDS011;29815;48.184;11.268;2023-05-07T14:18:59;3.17;;;2.40;;
43877;SDS011;29815;48.184;11.268;2023-05-07T14:21:30;2.90;;;2.28;;
43877;SDS011;29815;48.184;11.268;2023-05-07T14:23:59;2.78;;;2.00;;
43877;SDS011;29815;48.184;11.268;2023-05-07T14:26:29;3.10;;;2.30;;
43877;SDS011;29815;48.184;11.268;2023-05-07T14:28:58;2.33;;;2.00;;
43877;SDS011;29815;48.184;11.268;2023-05-07T14:31:28;3.25;;;2.22;;
43877;SDS011;29815;48.184;11.268;2023-05-07T14:33:58;5.22;;;2.40;;
43877;SDS011;29815;48.184;11.268;2023-05-07T14:36:28;3.13;;;2.00;;
43877;SDS011;29815;48.184;11.268;2023-05-07T14:38:59;3.72;;;2.50;;
43877;SDS011;29815;48.184;11.268;2023-05-07T14:41:29;2.72;;;2.00;;
43877;SDS011;29815;48.184;11.268;2023-05-07T14:44:00;3.30;;;2.67;;
43877;SDS011;29815;48.184;11.268;2023-05-07T14:46:31;3.78;;;2.55;;
43877;SDS011;29815;48.184;11.268;2023-05-07T14:49:01;3.38;;;2.33;;
43877;SDS011;29815;48.184;11.268;2023-05-07T14:51:33;3.20;;;2.40;;
43877;SDS011;29815;48.184;11.268;2023-05-07T14:54:02;3.47;;;2.50;;
43877;SDS011;29815;48.184;11.268;2023-05-07T14:56:32;3.47;;;2.47;;
43877;SDS011;29815;48.184;11.268;2023-05-07T14:59:03;2.97;;;2.50;;
43877;SDS011;29815;48.184;11.268;2023-05-07T15:01:34;2.95;;;2.38;;
43877;SDS011;29815;48.184;11.268;2023-05-07T15:04:04;3.25;;;2.60;;
43877;SDS011;29815;48.184;11.268;2023-05-07T15:06:35;3.83;;;2.50;;
43877;SDS011;29815;48.184;11.268;2023-05-07T15:09:05;4.72;;;2.80;;